sensor_id;sensor_type;location;lat;lon;timestamp;P1;durP1;ratioP1;P2;durP2;ratioP2
15061;SDS011;7630;50.306;8.566;2023-07-31T00:00:24;5.83;;;4.13;;
15061;SDS011;7630;50.306;8.566;2023-07-31T00:04:25;3.80;;;3.23;;
15061;SDS011;7630;50.306;8.566;2023-07-31T00:08:26;5.33;;;3.47;;
15061;SDS011;7630;50.306;8.566;2023-07-31T00:12:28;5.03;;;3.23;;
15061;SDS011;7630;50.306;8.566;2023-07-31T00:16:29;5.73;;;3.30;;
15061;SDS011;7630;50.306;8.566;2023-07-31T00:20:30;3.73;;;3.43;;
15061;SDS011;7630;50.306;8.566;2023-07-31T00:24:31;5.30;;;3.17;;
15061;SDS011;7630;50.306;8.566;2023-07-31T00:28:32;3.50;;;2.90;;
15061;SDS011;7630;50.306;8.566;2023-07-31T00:32:34;13.70;;;4.30;;
15061;SDS011;7630;50.306;8.566;2023-07-31T00:36:35;3.43;;;3.13;;
15061;SDS011;7630;50.306;8.566;2023-07-31T00:40:37;6.00;;;3.60;;
15061;SDS011;7630;50.306;8.566;2023-07-31T00:44:38;3.47;;;3.17;;
15061;SDS011;7630;50.306;8.566;2023-07-31T00:48:39;8.10;;;3.27;;
15061;SDS011;7630;50.306;8.566;2023-07-31T00:52:41;4.83;;;3.07;;
15061;SDS011;7630;50.306;8.566;2023-07-31T00:56:42;6.27;;;3.90;;
15061;SDS011;7630;50.306;8.566;2023-07-31T01:00:46;9.03;;;4.00;;
15061;SDS011;7630;50.306;8.566;2023-07-31T01:04:47;9.23;;;3.70;;
15061;SDS011;7630;50.306;8.566;2023-07-31T01:08:53;4.67;;;4.00;;
15061;SDS011;7630;50.306;8.566;2023-07-31T01:12:59;4.83;;;2.97;;
15061;SDS011;7630;50.306;8.566;2023-07-31T01:17:01;10.27;;;4.43;;
15061;SDS011;7630;50.306;8.566;2023-07-31T01:30:21;5.73;;;3.50;;
15061;SDS011;7630;50.306;8.566;2023-07-31T01:34:24;4.93;;;3.07;;
15061;SDS011;7630;50.306;8.566;2023-07-31T01:38:27;9.50;;;3.97;;
15061;SDS011;7630;50.306;8.566;2023-07-31T01:42:28;6.07;;;3.57;;
15061;SDS011;7630;50.306;8.566;2023-07-31T01:46:29;8.33;;;3.77;;
15061;SDS011;7630;50.306;8.566;2023-07-31T01:50:30;4.83;;;3.30;;
15061;SDS011;7630;50.306;8.566;2023-07-31T01:54:31;4.83;;;3.40;;
15061;SDS011;7630;50.306;8.566;2023-07-31T01:58:34;6.30;;;3.40;;
15061;SDS011;7630;50.306;8.566;2023-07-31T02:02:35;8.07;;;3.33;;
15061;SDS011;7630;50.306;8.566;2023-07-31T02:06:36;6.23;;;3.73;;
15061;SDS011;7630;50.306;8.566;2023-07-31T02:10:38;4.50;;;3.60;;
15061;SDS011;7630;50.306;8.566;2023-07-31T02:14:40;5.90;;;3.47;;
15061;SDS011;7630;50.306;8.566;2023-07-31T02:18:41;4.47;;;3.67;;
15061;SDS011;7630;50.306;8.566;2023-07-31T02:22:42;6.60;;;3.80;;
15061;SDS011;7630;50.306;8.566;2023-07-31T02:26:43;4.43;;;3.43;;
15061;SDS011;7630;50.306;8.566;2023-07-31T02:30:45;9.57;;;4.20;;
15061;SDS011;7630;50.306;8.566;2023-07-31T02:34:47;4.43;;;3.63;;
15061;SDS011;7630;50.306;8.566;2023-07-31T02:38:48;4.73;;;3.73;;
15061;SDS011;7630;50.306;8.566;2023-07-31T02:42:49;6.47;;;5.40;;
15061;SDS011;7630;50.306;8.566;2023-07-31T02:46:50;10.13;;;4.07;;
15061;SDS011;7630;50.306;8.566;2023-07-31T02:50:51;5.50;;;3.20;;
15061;SDS011;7630;50.306;8.566;2023-07-31T02:54:52;4.57;;;3.97;;
15061;SDS011;7630;50.306;8.566;2023-07-31T02:58:53;4.30;;;3.83;;
15061;SDS011;7630;50.306;8.566;2023-07-31T03:02:55;6.63;;;4.60;;
15061;SDS011;7630;50.306;8.566;2023-07-31T03:06:56;6.17;;;5.30;;
15061;SDS011;7630;50.306;8.566;2023-07-31T03:10:57;7.43;;;3.90;;
15061;SDS011;7630;50.306;8.566;2023-07-31T03:14:58;5.00;;;3.50;;
15061;SDS011;7630;50.306;8.566;2023-07-31T03:19:00;4.03;;;3.63;;
15061;SDS011;7630;50.306;8.566;2023-07-31T03:23:01;4.87;;;3.03;;
15061;SDS011;7630;50.306;8.566;2023-07-31T03:27:02;3.97;;;3.60;;
15061;SDS011;7630;50.306;8.566;2023-07-31T03:31:03;5.07;;;4.30;;
15061;SDS011;7630;50.306;8.566;2023-07-31T03:35:05;5.23;;;4.20;;
15061;SDS011;7630;50.306;8.566;2023-07-31T03:39:06;7.80;;;4.13;;
15061;SDS011;7630;50.306;8.566;2023-07-31T03:43:07;3.93;;;3.53;;
15061;SDS011;7630;50.306;8.566;2023-07-31T03:47:08;5.17;;;3.73;;
15061;SDS011;7630;50.306;8.566;2023-07-31T03:51:09;4.70;;;3.77;;
15061;SDS011;7630;50.306;8.566;2023-07-31T03:55:11;4.23;;;2.73;;
15061;SDS011;7630;50.306;8.566;2023-07-31T03:59:12;4.27;;;2.97;;
15061;SDS011;7630;50.306;8.566;2023-07-31T04:03:13;10.80;;;3.50;;
15061;SDS011;7630;50.306;8.566;2023-07-31T04:07:14;6.27;;;3.87;;
15061;SDS011;7630;50.306;8.566;2023-07-31T04:11:18;4.87;;;3.00;;
15061;SDS011;7630;50.306;8.566;2023-07-31T04:15:18;6.73;;;3.20;;
15061;SDS011;7630;50.306;8.566;2023-07-31T04:19:20;3.63;;;3.40;;
15061;SDS011;7630;50.306;8.566;2023-07-31T04:23:21;4.63;;;3.57;;
15061;SDS011;7630;50.306;8.566;2023-07-31T04:27:22;4.80;;;3.47;;
15061;SDS011;7630;50.306;8.566;2023-07-31T04:31:23;6.87;;;4.40;;
15061;SDS011;7630;50.306;8.566;2023-07-31T04:35:24;4.50;;;3.30;;
15061;SDS011;7630;50.306;8.566;2023-07-31T04:39:25;4.37;;;3.80;;
15061;SDS011;7630;50.306;8.566;2023-07-31T04:43:27;4.30;;;3.43;;
15061;SDS011;7630;50.306;8.566;2023-07-31T04:47:28;5.20;;;3.37;;
15061;SDS011;7630;50.306;8.566;2023-07-31T04:51:29;7.47;;;3.70;;
15061;SDS011;7630;50.306;8.566;2023-07-31T04:55:30;4.00;;;3.33;;
15061;SDS011;7630;50.306;8.566;2023-07-31T04:59:31;3.67;;;3.37;;
15061;SDS011;7630;50.306;8.566;2023-07-31T05:03:33;4.77;;;3.13;;
15061;SDS011;7630;50.306;8.566;2023-07-31T05:07:34;5.27;;;4.77;;
15061;SDS011;7630;50.306;8.566;2023-07-31T05:11:35;3.63;;;3.30;;
15061;SDS011;7630;50.306;8.566;2023-07-31T05:15:36;5.73;;;3.83;;
15061;SDS011;7630;50.306;8.566;2023-07-31T05:19:37;5.77;;;3.43;;
15061;SDS011;7630;50.306;8.566;2023-07-31T05:23:41;3.60;;;2.97;;
15061;SDS011;7630;50.306;8.566;2023-07-31T05:27:42;3.40;;;3.10;;
15061;SDS011;7630;50.306;8.566;2023-07-31T05:31:43;3.40;;;3.10;;
15061;SDS011;7630;50.306;8.566;2023-07-31T05:35:44;4.47;;;3.37;;
15061;SDS011;7630;50.306;8.566;2023-07-31T05:39:46;5.70;;;3.50;;
15061;SDS011;7630;50.306;8.566;2023-07-31T05:43:47;3.80;;;3.40;;
15061;SDS011;7630;50.306;8.566;2023-07-31T05:47:48;4.83;;;3.57;;
15061;SDS011;7630;50.306;8.566;2023-07-31T05:51:49;7.03;;;4.00;;
15061;SDS011;7630;50.306;8.566;2023-07-31T05:55:50;6.00;;;4.27;;
15061;SDS011;7630;50.306;8.566;2023-07-31T05:59:51;3.40;;;3.00;;
15061;SDS011;7630;50.306;8.566;2023-07-31T06:03:54;4.17;;;3.77;;
15061;SDS011;7630;50.306;8.566;2023-07-31T06:07:55;5.23;;;3.67;;
15061;SDS011;7630;50.306;8.566;2023-07-31T06:11:58;5.57;;;4.03;;
15061;SDS011;7630;50.306;8.566;2023-07-31T06:15:59;6.60;;;4.73;;
15061;SDS011;7630;50.306;8.566;2023-07-31T06:20:00;4.60;;;3.40;;
15061;SDS011;7630;50.306;8.566;2023-07-31T06:24:01;14.77;;;4.60;;
15061;SDS011;7630;50.306;8.566;2023-07-31T06:28:03;5.97;;;4.03;;
15061;SDS011;7630;50.306;8.566;2023-07-31T06:32:04;7.20;;;3.63;;
15061;SDS011;7630;50.306;8.566;2023-07-31T06:36:05;7.43;;;4.13;;
15061;SDS011;7630;50.306;8.566;2023-07-31T06:40:07;7.47;;;4.50;;
15061;SDS011;7630;50.306;8.566;2023-07-31T06:44:10;7.27;;;3.97;;
15061;SDS011;7630;50.306;8.566;2023-07-31T06:48:11;4.43;;;4.03;;
15061;SDS011;7630;50.306;8.566;2023-07-31T06:52:13;9.73;;;5.40;;
15061;SDS011;7630;50.306;8.566;2023-07-31T06:56:14;9.20;;;4.37;;
15061;SDS011;7630;50.306;8.566;2023-07-31T07:00:16;8.57;;;4.80;;
15061;SDS011;7630;50.306;8.566;2023-07-31T07:04:18;7.70;;;4.57;;
15061;SDS011;7630;50.306;8.566;2023-07-31T07:08:19;7.40;;;4.30;;
15061;SDS011;7630;50.306;8.566;2023-07-31T07:12:20;8.87;;;4.87;;
15061;SDS011;7630;50.306;8.566;2023-07-31T07:16:21;6.27;;;4.80;;
15061;SDS011;7630;50.306;8.566;2023-07-31T07:20:23;6.33;;;4.63;;
15061;SDS011;7630;50.306;8.566;2023-07-31T07:24:24;5.30;;;3.60;;
15061;SDS011;7630;50.306;8.566;2023-07-31T07:28:25;5.57;;;3.77;;
15061;SDS011;7630;50.306;8.566;2023-07-31T07:32:26;6.30;;;4.67;;
15061;SDS011;7630;50.306;8.566;2023-07-31T07:36:28;6.00;;;4.97;;
15061;SDS011;7630;50.306;8.566;2023-07-31T07:40:29;8.63;;;5.37;;
15061;SDS011;7630;50.306;8.566;2023-07-31T07:44:31;7.30;;;4.80;;
15061;SDS011;7630;50.306;8.566;2023-07-31T07:48:32;9.13;;;4.90;;
15061;SDS011;7630;50.306;8.566;2023-07-31T07:52:33;4.77;;;3.60;;
15061;SDS011;7630;50.306;8.566;2023-07-31T07:56:34;5.83;;;4.93;;
15061;SDS011;7630;50.306;8.566;2023-07-31T08:00:37;8.60;;;5.87;;
15061;SDS011;7630;50.306;8.566;2023-07-31T08:04:38;6.03;;;4.97;;
15061;SDS011;7630;50.306;8.566;2023-07-31T08:08:39;7.07;;;4.67;;
15061;SDS011;7630;50.306;8.566;2023-07-31T08:12:40;9.63;;;3.77;;
15061;SDS011;7630;50.306;8.566;2023-07-31T08:16:42;6.37;;;4.40;;
15061;SDS011;7630;50.306;8.566;2023-07-31T08:20:43;7.10;;;5.10;;
15061;SDS011;7630;50.306;8.566;2023-07-31T08:24:45;8.03;;;5.07;;
15061;SDS011;7630;50.306;8.566;2023-07-31T08:28:46;5.77;;;4.07;;
15061;SDS011;7630;50.306;8.566;2023-07-31T08:32:49;4.03;;;3.37;;
15061;SDS011;7630;50.306;8.566;2023-07-31T08:36:50;6.47;;;3.83;;
15061;SDS011;7630;50.306;8.566;2023-07-31T08:40:51;6.97;;;5.10;;
15061;SDS011;7630;50.306;8.566;2023-07-31T08:44:53;5.00;;;3.80;;
15061;SDS011;7630;50.306;8.566;2023-07-31T08:48:56;6.07;;;4.03;;
15061;SDS011;7630;50.306;8.566;2023-07-31T08:52:59;5.60;;;5.03;;
15061;SDS011;7630;50.306;8.566;2023-07-31T08:57:01;8.50;;;4.90;;
15061;SDS011;7630;50.306;8.566;2023-07-31T09:01:04;4.53;;;4.13;;
15061;SDS011;7630;50.306;8.566;2023-07-31T09:05:06;4.10;;;3.70;;
15061;SDS011;7630;50.306;8.566;2023-07-31T09:09:08;8.53;;;4.67;;
15061;SDS011;7630;50.306;8.566;2023-07-31T09:13:10;12.57;;;3.87;;
15061;SDS011;7630;50.306;8.566;2023-07-31T09:17:13;7.30;;;5.47;;
15061;SDS011;7630;50.306;8.566;2023-07-31T09:21:14;11.23;;;5.13;;
15061;SDS011;7630;50.306;8.566;2023-07-31T09:29:28;9.30;;;5.77;;
15061;SDS011;7630;50.306;8.566;2023-07-31T09:33:30;8.70;;;5.70;;
15061;SDS011;7630;50.306;8.566;2023-07-31T09:37:31;11.43;;;5.37;;
15061;SDS011;7630;50.306;8.566;2023-07-31T09:41:36;9.33;;;6.43;;
15061;SDS011;7630;50.306;8.566;2023-07-31T09:45:40;8.47;;;5.43;;
15061;SDS011;7630;50.306;8.566;2023-07-31T09:49:45;6.13;;;4.97;;
15061;SDS011;7630;50.306;8.566;2023-07-31T09:53:49;5.10;;;4.50;;
15061;SDS011;7630;50.306;8.566;2023-07-31T09:57:52;6.60;;;5.57;;
15061;SDS011;7630;50.306;8.566;2023-07-31T10:01:56;8.63;;;5.37;;
15061;SDS011;7630;50.306;8.566;2023-07-31T10:05:58;5.43;;;4.40;;
15061;SDS011;7630;50.306;8.566;2023-07-31T10:10:02;6.67;;;4.53;;
15061;SDS011;7630;50.306;8.566;2023-07-31T10:14:05;10.67;;;5.50;;
15061;SDS011;7630;50.306;8.566;2023-07-31T10:18:08;10.40;;;5.77;;
15061;SDS011;7630;50.306;8.566;2023-07-31T10:22:10;7.77;;;5.13;;
15061;SDS011;7630;50.306;8.566;2023-07-31T10:26:16;9.90;;;5.10;;
15061;SDS011;7630;50.306;8.566;2023-07-31T10:30:21;6.23;;;4.73;;
15061;SDS011;7630;50.306;8.566;2023-07-31T10:34:24;6.60;;;4.13;;
15061;SDS011;7630;50.306;8.566;2023-07-31T10:38:25;6.27;;;3.93;;
15061;SDS011;7630;50.306;8.566;2023-07-31T10:46:35;6.73;;;4.60;;
15061;SDS011;7630;50.306;8.566;2023-07-31T10:50:38;8.03;;;4.40;;
15061;SDS011;7630;50.306;8.566;2023-07-31T10:54:41;6.67;;;4.10;;
15061;SDS011;7630;50.306;8.566;2023-07-31T10:58:43;5.40;;;4.13;;
15061;SDS011;7630;50.306;8.566;2023-07-31T11:07:12;7.07;;;4.73;;
15061;SDS011;7630;50.306;8.566;2023-07-31T11:11:14;5.13;;;4.67;;
15061;SDS011;7630;50.306;8.566;2023-07-31T11:15:17;5.27;;;4.10;;
15061;SDS011;7630;50.306;8.566;2023-07-31T11:19:25;6.03;;;4.00;;
15061;SDS011;7630;50.306;8.566;2023-07-31T11:23:26;7.17;;;4.70;;
15061;SDS011;7630;50.306;8.566;2023-07-31T11:27:28;6.50;;;4.60;;
15061;SDS011;7630;50.306;8.566;2023-07-31T11:31:29;4.80;;;4.13;;
15061;SDS011;7630;50.306;8.566;2023-07-31T11:35:31;7.37;;;4.07;;
15061;SDS011;7630;50.306;8.566;2023-07-31T11:39:33;7.70;;;4.40;;
15061;SDS011;7630;50.306;8.566;2023-07-31T11:43:35;6.43;;;3.87;;
15061;SDS011;7630;50.306;8.566;2023-07-31T11:47:37;4.87;;;3.67;;
15061;SDS011;7630;50.306;8.566;2023-07-31T11:51:38;7.07;;;3.57;;
15061;SDS011;7630;50.306;8.566;2023-07-31T11:55:40;8.63;;;5.40;;
15061;SDS011;7630;50.306;8.566;2023-07-31T11:59:42;4.93;;;3.80;;
15061;SDS011;7630;50.306;8.566;2023-07-31T12:03:44;6.80;;;3.73;;
15061;SDS011;7630;50.306;8.566;2023-07-31T12:07:51;6.80;;;4.90;;
15061;SDS011;7630;50.306;8.566;2023-07-31T12:11:53;3.83;;;3.50;;
15061;SDS011;7630;50.306;8.566;2023-07-31T12:15:56;6.03;;;5.03;;
15061;SDS011;7630;50.306;8.566;2023-07-31T12:19:59;6.00;;;3.97;;
15061;SDS011;7630;50.306;8.566;2023-07-31T12:24:02;5.33;;;3.90;;
15061;SDS011;7630;50.306;8.566;2023-07-31T12:28:04;4.27;;;3.87;;
15061;SDS011;7630;50.306;8.566;2023-07-31T12:32:22;11.73;;;4.93;;
15061;SDS011;7630;50.306;8.566;2023-07-31T12:36:26;5.07;;;4.30;;
15061;SDS011;7630;50.306;8.566;2023-07-31T12:40:28;6.43;;;4.40;;
15061;SDS011;7630;50.306;8.566;2023-07-31T12:44:31;6.23;;;4.33;;
15061;SDS011;7630;50.306;8.566;2023-07-31T12:48:33;4.80;;;3.10;;
15061;SDS011;7630;50.306;8.566;2023-07-31T12:52:35;5.80;;;4.07;;
15061;SDS011;7630;50.306;8.566;2023-07-31T12:56:36;4.37;;;3.47;;
15061;SDS011;7630;50.306;8.566;2023-07-31T13:00:37;6.43;;;3.23;;
15061;SDS011;7630;50.306;8.566;2023-07-31T13:04:38;5.97;;;4.60;;
15061;SDS011;7630;50.306;8.566;2023-07-31T13:08:39;3.67;;;3.10;;
15061;SDS011;7630;50.306;8.566;2023-07-31T13:12:40;5.77;;;3.80;;
15061;SDS011;7630;50.306;8.566;2023-07-31T13:16:42;8.13;;;3.73;;
15061;SDS011;7630;50.306;8.566;2023-07-31T13:20:43;3.50;;;3.20;;
15061;SDS011;7630;50.306;8.566;2023-07-31T13:24:44;3.47;;;3.17;;
15061;SDS011;7630;50.306;8.566;2023-07-31T13:28:45;3.40;;;3.10;;
15061;SDS011;7630;50.306;8.566;2023-07-31T13:32:46;5.23;;;3.77;;
15061;SDS011;7630;50.306;8.566;2023-07-31T13:36:49;4.80;;;4.27;;
15061;SDS011;7630;50.306;8.566;2023-07-31T13:40:51;5.53;;;4.47;;
15061;SDS011;7630;50.306;8.566;2023-07-31T13:44:52;5.67;;;3.97;;
15061;SDS011;7630;50.306;8.566;2023-07-31T13:48:53;5.57;;;4.00;;
15061;SDS011;7630;50.306;8.566;2023-07-31T13:52:56;7.93;;;4.47;;
15061;SDS011;7630;50.306;8.566;2023-07-31T13:56:57;4.40;;;3.57;;
15061;SDS011;7630;50.306;8.566;2023-07-31T14:00:58;3.90;;;3.43;;
15061;SDS011;7630;50.306;8.566;2023-07-31T14:05:00;5.40;;;3.20;;
15061;SDS011;7630;50.306;8.566;2023-07-31T14:09:01;4.93;;;4.20;;
15061;SDS011;7630;50.306;8.566;2023-07-31T14:13:02;3.80;;;3.40;;
15061;SDS011;7630;50.306;8.566;2023-07-31T14:17:03;3.30;;;2.93;;
15061;SDS011;7630;50.306;8.566;2023-07-31T14:21:05;5.97;;;3.93;;
15061;SDS011;7630;50.306;8.566;2023-07-31T14:25:06;3.70;;;3.20;;
15061;SDS011;7630;50.306;8.566;2023-07-31T14:29:10;5.47;;;3.73;;
15061;SDS011;7630;50.306;8.566;2023-07-31T14:33:11;3.37;;;3.10;;
15061;SDS011;7630;50.306;8.566;2023-07-31T14:37:12;5.57;;;2.80;;
15061;SDS011;7630;50.306;8.566;2023-07-31T14:41:14;3.67;;;2.90;;
15061;SDS011;7630;50.306;8.566;2023-07-31T14:45:15;3.53;;;3.23;;
15061;SDS011;7630;50.306;8.566;2023-07-31T14:49:16;3.70;;;3.27;;
15061;SDS011;7630;50.306;8.566;2023-07-31T14:53:17;6.10;;;3.30;;
15061;SDS011;7630;50.306;8.566;2023-07-31T14:57:18;6.90;;;3.47;;
15061;SDS011;7630;50.306;8.566;2023-07-31T15:01:19;2.70;;;2.50;;
15061;SDS011;7630;50.306;8.566;2023-07-31T15:05:20;5.80;;;2.93;;
15061;SDS011;7630;50.306;8.566;2023-07-31T15:09:22;3.50;;;1.97;;
15061;SDS011;7630;50.306;8.566;2023-07-31T15:13:24;2.50;;;2.30;;
15061;SDS011;7630;50.306;8.566;2023-07-31T15:17:25;4.97;;;2.87;;
15061;SDS011;7630;50.306;8.566;2023-07-31T15:21:27;4.53;;;2.70;;
15061;SDS011;7630;50.306;8.566;2023-07-31T15:25:28;2.97;;;2.77;;
15061;SDS011;7630;50.306;8.566;2023-07-31T15:29:29;3.97;;;2.30;;
15061;SDS011;7630;50.306;8.566;2023-07-31T15:33:31;3.50;;;3.03;;
15061;SDS011;7630;50.306;8.566;2023-07-31T15:37:32;5.47;;;3.80;;
15061;SDS011;7630;50.306;8.566;2023-07-31T15:41:34;3.97;;;3.30;;
15061;SDS011;7630;50.306;8.566;2023-07-31T15:45:36;3.83;;;3.40;;
15061;SDS011;7630;50.306;8.566;2023-07-31T15:49:37;4.57;;;3.23;;
15061;SDS011;7630;50.306;8.566;2023-07-31T15:53:38;4.30;;;3.20;;
15061;SDS011;7630;50.306;8.566;2023-07-31T15:57:39;7.33;;;3.30;;
15061;SDS011;7630;50.306;8.566;2023-07-31T16:01:40;4.23;;;3.83;;
15061;SDS011;7630;50.306;8.566;2023-07-31T16:05:41;8.57;;;3.47;;
15061;SDS011;7630;50.306;8.566;2023-07-31T16:09:42;4.57;;;2.77;;
15061;SDS011;7630;50.306;8.566;2023-07-31T16:13:43;3.60;;;3.30;;
15061;SDS011;7630;50.306;8.566;2023-07-31T16:17:44;4.53;;;2.23;;
15061;SDS011;7630;50.306;8.566;2023-07-31T16:21:46;5.13;;;3.00;;
15061;SDS011;7630;50.306;8.566;2023-07-31T16:25:47;4.77;;;2.37;;
15061;SDS011;7630;50.306;8.566;2023-07-31T16:29:49;2.00;;;1.90;;
15061;SDS011;7630;50.306;8.566;2023-07-31T16:33:51;3.30;;;2.00;;
15061;SDS011;7630;50.306;8.566;2023-07-31T16:37:52;2.43;;;2.23;;
15061;SDS011;7630;50.306;8.566;2023-07-31T16:41:54;4.57;;;2.07;;
15061;SDS011;7630;50.306;8.566;2023-07-31T16:45:55;3.17;;;2.07;;
15061;SDS011;7630;50.306;8.566;2023-07-31T16:49:57;4.53;;;2.30;;
15061;SDS011;7630;50.306;8.566;2023-07-31T16:53:58;3.17;;;2.87;;
15061;SDS011;7630;50.306;8.566;2023-07-31T16:57:59;3.23;;;2.77;;
15061;SDS011;7630;50.306;8.566;2023-07-31T17:02:02;4.77;;;2.90;;
15061;SDS011;7630;50.306;8.566;2023-07-31T17:06:04;6.17;;;3.23;;
15061;SDS011;7630;50.306;8.566;2023-07-31T17:10:05;12.43;;;2.70;;
15061;SDS011;7630;50.306;8.566;2023-07-31T17:14:07;3.30;;;3.10;;
15061;SDS011;7630;50.306;8.566;2023-07-31T17:18:09;5.17;;;3.50;;
15061;SDS011;7630;50.306;8.566;2023-07-31T17:22:10;3.00;;;2.60;;
15061;SDS011;7630;50.306;8.566;2023-07-31T17:26:11;3.50;;;2.90;;
15061;SDS011;7630;50.306;8.566;2023-07-31T17:30:13;3.20;;;3.00;;
15061;SDS011;7630;50.306;8.566;2023-07-31T17:34:15;6.10;;;3.87;;
15061;SDS011;7630;50.306;8.566;2023-07-31T17:38:16;5.40;;;4.63;;
15061;SDS011;7630;50.306;8.566;2023-07-31T17:42:17;4.20;;;3.90;;
15061;SDS011;7630;50.306;8.566;2023-07-31T17:46:18;4.80;;;4.30;;
15061;SDS011;7630;50.306;8.566;2023-07-31T17:50:19;6.20;;;3.80;;
15061;SDS011;7630;50.306;8.566;2023-07-31T17:54:20;5.40;;;4.87;;
15061;SDS011;7630;50.306;8.566;2023-07-31T17:58:22;5.93;;;5.03;;
15061;SDS011;7630;50.306;8.566;2023-07-31T18:02:23;4.97;;;4.47;;
15061;SDS011;7630;50.306;8.566;2023-07-31T18:06:24;5.67;;;4.33;;
15061;SDS011;7630;50.306;8.566;2023-07-31T18:10:26;5.20;;;4.60;;
15061;SDS011;7630;50.306;8.566;2023-07-31T18:14:27;5.70;;;5.00;;
15061;SDS011;7630;50.306;8.566;2023-07-31T18:18:28;10.43;;;5.37;;
15061;SDS011;7630;50.306;8.566;2023-07-31T18:22:30;6.27;;;5.67;;
15061;SDS011;7630;50.306;8.566;2023-07-31T18:26:31;6.83;;;6.17;;
15061;SDS011;7630;50.306;8.566;2023-07-31T18:30:33;7.90;;;5.67;;
15061;SDS011;7630;50.306;8.566;2023-07-31T18:34:34;6.80;;;6.03;;
15061;SDS011;7630;50.306;8.566;2023-07-31T18:38:35;6.80;;;4.83;;
15061;SDS011;7630;50.306;8.566;2023-07-31T18:42:36;6.30;;;5.43;;
15061;SDS011;7630;50.306;8.566;2023-07-31T18:46:37;7.70;;;6.87;;
15061;SDS011;7630;50.306;8.566;2023-07-31T18:50:40;7.63;;;5.77;;
15061;SDS011;7630;50.306;8.566;2023-07-31T18:54:43;8.53;;;5.70;;
15061;SDS011;7630;50.306;8.566;2023-07-31T18:58:44;9.20;;;5.73;;
15061;SDS011;7630;50.306;8.566;2023-07-31T19:02:45;7.50;;;4.67;;
15061;SDS011;7630;50.306;8.566;2023-07-31T19:06:47;12.93;;;4.93;;
15061;SDS011;7630;50.306;8.566;2023-07-31T19:10:48;6.30;;;5.33;;
15061;SDS011;7630;50.306;8.566;2023-07-31T19:14:49;11.63;;;4.77;;
15061;SDS011;7630;50.306;8.566;2023-07-31T19:18:50;8.37;;;5.30;;
15061;SDS011;7630;50.306;8.566;2023-07-31T19:22:51;6.30;;;5.70;;
15061;SDS011;7630;50.306;8.566;2023-07-31T19:26:53;7.40;;;5.50;;
15061;SDS011;7630;50.306;8.566;2023-07-31T19:30:54;6.53;;;5.10;;
15061;SDS011;7630;50.306;8.566;2023-07-31T19:34:55;6.97;;;5.10;;
15061;SDS011;7630;50.306;8.566;2023-07-31T19:38:56;9.40;;;5.97;;
15061;SDS011;7630;50.306;8.566;2023-07-31T19:42:57;6.97;;;6.27;;
15061;SDS011;7630;50.306;8.566;2023-07-31T19:47:00;8.23;;;7.10;;
15061;SDS011;7630;50.306;8.566;2023-07-31T19:51:03;8.37;;;6.90;;
15061;SDS011;7630;50.306;8.566;2023-07-31T19:55:05;10.33;;;6.00;;
15061;SDS011;7630;50.306;8.566;2023-07-31T19:59:07;10.00;;;7.20;;
15061;SDS011;7630;50.306;8.566;2023-07-31T20:03:08;8.70;;;6.37;;
15061;SDS011;7630;50.306;8.566;2023-07-31T20:07:09;17.47;;;6.97;;
15061;SDS011;7630;50.306;8.566;2023-07-31T20:11:10;8.97;;;7.30;;
15061;SDS011;7630;50.306;8.566;2023-07-31T20:15:22;11.30;;;7.87;;
15061;SDS011;7630;50.306;8.566;2023-07-31T20:19:22;9.57;;;8.13;;
15061;SDS011;7630;50.306;8.566;2023-07-31T20:23:23;8.90;;;6.87;;
15061;SDS011;7630;50.306;8.566;2023-07-31T20:27:26;10.53;;;8.20;;
15061;SDS011;7630;50.306;8.566;2023-07-31T20:31:27;8.33;;;6.40;;
15061;SDS011;7630;50.306;8.566;2023-07-31T20:35:29;8.43;;;7.47;;
15061;SDS011;7630;50.306;8.566;2023-07-31T20:39:30;7.77;;;6.83;;
15061;SDS011;7630;50.306;8.566;2023-07-31T20:43:31;10.80;;;8.20;;
15061;SDS011;7630;50.306;8.566;2023-07-31T20:47:32;10.00;;;8.30;;
15061;SDS011;7630;50.306;8.566;2023-07-31T20:51:33;9.23;;;7.13;;
15061;SDS011;7630;50.306;8.566;2023-07-31T20:55:39;10.30;;;6.60;;
15061;SDS011;7630;50.306;8.566;2023-07-31T20:59:42;7.30;;;6.60;;
15061;SDS011;7630;50.306;8.566;2023-07-31T21:03:43;7.83;;;5.20;;
15061;SDS011;7630;50.306;8.566;2023-07-31T21:07:45;8.90;;;5.67;;
15061;SDS011;7630;50.306;8.566;2023-07-31T21:11:46;8.60;;;5.90;;
15061;SDS011;7630;50.306;8.566;2023-07-31T21:15:47;8.63;;;5.60;;
15061;SDS011;7630;50.306;8.566;2023-07-31T21:19:48;14.40;;;6.83;;
15061;SDS011;7630;50.306;8.566;2023-07-31T21:23:49;7.93;;;6.87;;
15061;SDS011;7630;50.306;8.566;2023-07-31T21:27:50;11.67;;;7.10;;
15061;SDS011;7630;50.306;8.566;2023-07-31T21:31:52;7.20;;;6.07;;
15061;SDS011;7630;50.306;8.566;2023-07-31T21:35:54;5.23;;;4.73;;
15061;SDS011;7630;50.306;8.566;2023-07-31T21:39:56;5.93;;;4.30;;
15061;SDS011;7630;50.306;8.566;2023-07-31T21:43:57;3.80;;;3.50;;
15061;SDS011;7630;50.306;8.566;2023-07-31T21:47:58;4.03;;;3.63;;
15061;SDS011;7630;50.306;8.566;2023-07-31T21:51:59;6.37;;;4.10;;
15061;SDS011;7630;50.306;8.566;2023-07-31T21:56:00;4.70;;;4.30;;
15061;SDS011;7630;50.306;8.566;2023-07-31T22:00:05;5.60;;;4.80;;
15061;SDS011;7630;50.306;8.566;2023-07-31T22:04:07;5.80;;;4.80;;
15061;SDS011;7630;50.306;8.566;2023-07-31T22:08:08;6.23;;;5.27;;
15061;SDS011;7630;50.306;8.566;2023-07-31T22:12:09;7.10;;;5.20;;
15061;SDS011;7630;50.306;8.566;2023-07-31T22:16:10;5.93;;;5.00;;
15061;SDS011;7630;50.306;8.566;2023-07-31T22:20:12;5.33;;;4.40;;
15061;SDS011;7630;50.306;8.566;2023-07-31T22:24:13;4.80;;;4.03;;
15061;SDS011;7630;50.306;8.566;2023-07-31T22:28:14;4.27;;;3.97;;
15061;SDS011;7630;50.306;8.566;2023-07-31T22:32:17;4.03;;;3.73;;
15061;SDS011;7630;50.306;8.566;2023-07-31T22:36:18;5.57;;;4.10;;
15061;SDS011;7630;50.306;8.566;2023-07-31T22:40:19;5.33;;;4.63;;
15061;SDS011;7630;50.306;8.566;2023-07-31T22:44:20;5.80;;;3.97;;
15061;SDS011;7630;50.306;8.566;2023-07-31T22:48:21;4.13;;;3.73;;
15061;SDS011;7630;50.306;8.566;2023-07-31T22:52:24;6.40;;;3.93;;
15061;SDS011;7630;50.306;8.566;2023-07-31T22:56:25;3.60;;;3.30;;
15061;SDS011;7630;50.306;8.566;2023-07-31T23:00:26;4.50;;;3.10;;
15061;SDS011;7630;50.306;8.566;2023-07-31T23:04:27;3.93;;;3.60;;
15061;SDS011;7630;50.306;8.566;2023-07-31T23:08:30;4.67;;;3.03;;
15061;SDS011;7630;50.306;8.566;2023-07-31T23:12:32;4.37;;;2.57;;
15061;SDS011;7630;50.306;8.566;2023-07-31T23:16:33;2.30;;;2.10;;
15061;SDS011;7630;50.306;8.566;2023-07-31T23:20:34;2.00;;;1.80;;
15061;SDS011;7630;50.306;8.566;2023-07-31T23:24:35;2.87;;;1.70;;
15061;SDS011;7630;50.306;8.566;2023-07-31T23:28:37;1.67;;;1.53;;
15061;SDS011;7630;50.306;8.566;2023-07-31T23:32:38;2.33;;;1.83;;
15061;SDS011;7630;50.306;8.566;2023-07-31T23:36:40;4.87;;;1.83;;
15061;SDS011;7630;50.306;8.566;2023-07-31T23:40:42;13.37;;;2.40;;
15061;SDS011;7630;50.306;8.566;2023-07-31T23:44:43;2.37;;;2.20;;
15061;SDS011;7630;50.306;8.566;2023-07-31T23:48:46;2.50;;;2.23;;
15061;SDS011;7630;50.306;8.566;2023-07-31T23:52:47;24.40;;;2.93;;
15061;SDS011;7630;50.306;8.566;2023-07-31T23:56:51;1.77;;;1.40;;
